Time;durP1;ratioP1;P1;durP2;ratioP2;P2;SDS_P1;SDS_P2;PMS_P1;PMS_P2;Temp;Humidity;BMP_temperature;BMP_pressure;BME280_temperature;BME280_humidity;BME280_pressure;Samples;Min_cycle;Max_cycle;Signal;HPM_P1;HPM_P2
2021/03/03 00:01:44;;;;;;;39.50;17.38;;;3.10;99.90;;;;;;4991919;28;20034;-66
2021/03/03 00:04:09;;;;;;;34.10;18.38;;;3.10;99.90;;;;;;4993593;28;20034;-66
2021/03/03 00:06:35;;;;;;;33.85;18.05;;;3.00;99.90;;;;;;4975542;28;20066;-70
2021/03/03 00:09:00;;;;;;;36.15;18.65;;;3.00;99.90;;;;;;4993242;28;20037;-67
2021/03/03 00:11:26;;;;;;;36.28;18.45;;;3.00;99.90;;;;;;4993000;28;20439;-66
2021/03/03 00:13:52;;;;;;;34.75;18.33;;;3.00;99.90;;;;;;4998873;28;20471;-66
2021/03/03 00:16:17;;;;;;;43.28;20.42;;;3.00;99.90;;;;;;4993029;28;20046;-65
2021/03/03 00:18:43;;;;;;;38.22;19.50;;;3.00;99.90;;;;;;4974865;28;20121;-66
2021/03/03 00:21:09;;;;;;;33.38;17.25;;;3.00;99.90;;;;;;4992714;28;20038;-66
2021/03/03 00:23:34;;;;;;;40.03;18.75;;;3.00;99.90;;;;;;4992769;28;20384;-71
2021/03/03 00:26:00;;;;;;;37.28;18.17;;;3.00;99.90;;;;;;4991833;28;20034;-65
2021/03/03 00:28:26;;;;;;;39.40;18.60;;;3.00;99.90;;;;;;4992661;28;20069;-65
2021/03/03 00:30:52;;;;;;;34.67;18.67;;;2.90;99.90;;;;;;4974493;28;20037;-66
2021/03/03 00:33:17;;;;;;;35.30;17.88;;;2.90;99.90;;;;;;4992710;28;20069;-66
2021/03/03 00:35:43;;;;;;;42.35;19.63;;;2.90;99.90;;;;;;4972283;28;20351;-66
2021/03/03 00:38:09;;;;;;;40.35;19.35;;;3.00;99.90;;;;;;4982572;28;20384;-65
2021/03/03 00:40:34;;;;;;;35.28;18.65;;;3.00;99.90;;;;;;4988395;28;20088;-70
2021/03/03 00:43:00;;;;;;;37.15;19.23;;;3.00;99.90;;;;;;4973180;28;20027;-67
2021/03/03 00:45:26;;;;;;;39.85;18.13;;;3.00;99.90;;;;;;4996186;28;20516;-66
2021/03/03 00:47:52;;;;;;;33.05;17.40;;;3.00;99.90;;;;;;4973508;28;20034;-66
2021/03/03 00:50:18;;;;;;;33.65;17.27;;;2.90;99.90;;;;;;4986508;28;20027;-66
2021/03/03 00:52:43;;;;;;;41.10;18.00;;;2.90;99.90;;;;;;4991815;28;20559;-66
2021/03/03 00:55:10;;;;;;;38.95;19.15;;;2.90;99.90;;;;;;4979001;28;20054;-65
2021/03/03 00:57:35;;;;;;;40.17;17.98;;;2.90;99.90;;;;;;4978285;28;20040;-70
2021/03/03 01:00:02;;;;;;;41.42;18.55;;;2.80;99.90;;;;;;4982147;28;20048;-65
2021/03/03 01:02:27;;;;;;;35.35;18.08;;;2.80;99.90;;;;;;4984106;28;20078;-66
2021/03/03 01:04:53;;;;;;;42.70;21.80;;;2.80;99.90;;;;;;4961960;28;20049;-66
2021/03/03 01:07:18;;;;;;;34.83;18.30;;;2.80;99.90;;;;;;4986829;28;20037;-66
2021/03/03 01:09:44;;;;;;;40.53;19.30;;;2.80;99.90;;;;;;4988602;28;20054;-66
2021/03/03 01:12:10;;;;;;;38.92;19.80;;;2.90;99.90;;;;;;4955870;28;20035;-65
2021/03/03 01:14:35;;;;;;;35.70;19.15;;;2.90;99.90;;;;;;4974016;28;20027;-70
2021/03/03 01:17:01;;;;;;;34.25;18.08;;;2.90;99.90;;;;;;4980068;28;20501;-66
2021/03/03 01:19:26;;;;;;;36.00;19.42;;;2.80;99.90;;;;;;4985674;28;20109;-66
2021/03/03 01:21:52;;;;;;;39.08;18.00;;;2.80;99.90;;;;;;4981587;28;20035;-65
2021/03/03 01:24:18;;;;;;;34.25;18.02;;;2.80;99.90;;;;;;4972947;28;20031;-65
2021/03/03 01:26:43;;;;;;;36.97;18.90;;;2.80;99.90;;;;;;4971886;28;20039;-65
2021/03/03 01:29:09;;;;;;;33.60;17.08;;;2.80;99.90;;;;;;4982366;28;20034;-65
2021/03/03 01:31:35;;;;;;;35.20;17.58;;;2.80;99.90;;;;;;4987412;28;20158;-66
2021/03/03 01:34:01;;;;;;;33.80;16.73;;;2.70;99.90;;;;;;4985644;28;20418;-65
2021/03/03 01:36:26;;;;;;;39.83;18.45;;;2.70;99.90;;;;;;4991614;28;20114;-65
2021/03/03 01:38:52;;;;;;;30.67;17.13;;;2.70;99.90;;;;;;4990870;28;20113;-65
2021/03/03 01:41:17;;;;;;;34.95;17.73;;;2.70;99.90;;;;;;5001762;28;20048;-66
2021/03/03 01:43:43;;;;;;;35.03;17.88;;;2.60;99.90;;;;;;5010774;28;20041;-65
2021/03/03 01:46:09;;;;;;;33.67;17.52;;;2.60;99.90;;;;;;4978754;28;20387;-66
2021/03/03 01:48:35;;;;;;;34.38;17.50;;;2.60;99.90;;;;;;4991671;28;20387;-65
2021/03/03 01:51:00;;;;;;;34.15;17.42;;;2.50;99.90;;;;;;4990460;28;20064;-67
2021/03/03 01:53:27;;;;;;;34.05;16.88;;;2.50;99.90;;;;;;4974233;28;20152;-65
2021/03/03 01:55:56;;;;;;;36.72;17.17;;;2.50;99.90;;;;;;4990287;28;20045;-66
2021/03/03 01:58:22;;;;;;;32.53;16.67;;;2.40;99.90;;;;;;4991095;28;20109;-65
2021/03/03 02:00:49;;;;;;;30.27;15.80;;;2.40;99.90;;;;;;4990944;28;20082;-65
2021/03/03 02:03:15;;;;;;;37.75;18.38;;;2.40;99.90;;;;;;4977622;28;20030;-65
2021/03/03 02:05:40;;;;;;;38.22;18.85;;;2.30;99.90;;;;;;4997296;28;20043;-70
2021/03/03 02:08:20;;;;;;;40.40;19.52;;;2.30;99.90;;;;;;4996635;28;20022;-66
2021/03/03 02:11:12;;;;;;;38.22;17.30;;;2.30;99.90;;;;;;4994226;28;20023;-66
2021/03/03 02:13:45;;;;;;;37.20;18.48;;;2.40;99.90;;;;;;4994799;28;20030;-70
2021/03/03 02:16:13;;;;;;;35.47;17.10;;;2.40;99.90;;;;;;5001070;28;20030;-65
2021/03/03 02:18:40;;;;;;;38.47;18.70;;;2.40;99.90;;;;;;4994739;28;20034;-71
2021/03/03 02:21:19;;;;;;;43.67;18.80;;;2.40;99.90;;;;;;4995132;28;20114;-66
2021/03/03 02:24:09;;;;;;;37.53;18.15;;;2.40;99.90;;;;;;4976853;28;20112;-66
2021/03/03 02:26:37;;;;;;;39.42;19.55;;;2.50;99.90;;;;;;4994899;28;20030;-66
2021/03/03 02:29:13;;;;;;;37.03;18.00;;;2.50;99.90;;;;;;4994361;28;20049;-66
2021/03/03 02:31:41;;;;;;;35.25;17.10;;;2.50;99.90;;;;;;4996047;28;20023;-70
2021/03/03 02:34:08;;;;;;;35.28;17.20;;;2.50;99.90;;;;;;4994809;28;20038;-65
2021/03/03 02:36:38;;;;;;;34.88;16.30;;;2.50;99.90;;;;;;4994950;28;20478;-66
2021/03/03 02:39:05;;;;;;;31.90;16.00;;;2.50;99.90;;;;;;4994237;28;20109;-65
2021/03/03 02:41:32;;;;;;;37.83;17.85;;;2.40;99.90;;;;;;4994884;28;20040;-65
2021/03/03 02:44:00;;;;;;;36.50;17.70;;;2.40;99.90;;;;;;4993239;28;20026;-66
2021/03/03 02:46:26;;;;;;;40.22;19.45;;;2.40;99.90;;;;;;4977206;28;20038;-65
2021/03/03 02:48:53;;;;;;;34.28;17.52;;;2.40;99.90;;;;;;4994016;28;20041;-67
2021/03/03 02:51:18;;;;;;;34.15;17.95;;;2.40;99.90;;;;;;4986298;28;20034;-66
2021/03/03 02:53:44;;;;;;;38.28;18.17;;;2.50;99.90;;;;;;4994136;28;20028;-67
2021/03/03 02:56:10;;;;;;;38.80;18.33;;;2.50;99.90;;;;;;4994404;28;20034;-66
2021/03/03 02:58:36;;;;;;;37.60;17.98;;;2.60;99.90;;;;;;4994584;28;20037;-65
2021/03/03 03:01:07;;;;;;;37.00;18.77;;;2.60;99.90;;;;;;4997006;28;20052;-66
2021/03/03 03:03:35;;;;;;;;;;;2.70;99.90;;;;;;4995524;28;20069;-65
2021/03/03 03:06:09;;;;;;;30.50;15.57;;;2.70;99.90;;;;;;4993736;28;20008;-68
2021/03/03 03:08:37;;;;;;;33.72;16.92;;;2.70;99.90;;;;;;5004292;28;20030;-65
2021/03/03 03:11:06;;;;;;;31.23;16.30;;;2.70;99.90;;;;;;4993870;28;20030;-67
2021/03/03 03:13:34;;;;;;;35.53;18.10;;;2.70;99.90;;;;;;4993996;28;20029;-66
2021/03/03 03:16:02;;;;;;;39.65;17.92;;;2.60;99.90;;;;;;4993670;28;20042;-65
2021/03/03 03:18:34;;;;;;;42.50;18.73;;;2.70;99.90;;;;;;4993665;28;20031;-67
2021/03/03 03:21:01;;;;;;;35.05;17.17;;;2.70;99.90;;;;;;4993386;28;20117;-66
2021/03/03 03:23:27;;;;;;;35.38;17.60;;;2.70;99.90;;;;;;4993672;28;20031;-65
2021/03/03 03:25:55;;;;;;;33.35;17.13;;;2.70;99.90;;;;;;4993438;28;20038;-65
2021/03/03 03:28:22;;;;;;;37.40;17.77;;;2.70;99.90;;;;;;4980201;28;20030;-65
2021/03/03 03:30:50;;;;;;;38.78;18.17;;;2.70;99.90;;;;;;4993272;28;20030;-66
2021/03/03 03:33:17;;;;;;;38.05;17.92;;;2.70;99.90;;;;;;4993510;28;20149;-66
2021/03/03 03:35:43;;;;;;;32.90;17.67;;;2.80;99.90;;;;;;4993416;28;20117;-70
2021/03/03 03:38:08;;;;;;;35.35;17.55;;;2.80;99.90;;;;;;4993756;28;20101;-65
2021/03/03 03:40:34;;;;;;;33.95;17.75;;;2.80;99.90;;;;;;4993442;28;20459;-65
2021/03/03 03:43:01;;;;;;;34.58;17.02;;;2.80;99.90;;;;;;4992887;28;20026;-66
2021/03/03 03:45:30;;;;;;;38.55;17.25;;;2.90;99.90;;;;;;4993363;28;20092;-67
2021/03/03 03:47:56;;;;;;;33.72;17.35;;;3.00;99.90;;;;;;4993189;28;20486;-65
2021/03/03 03:50:25;;;;;;;36.47;16.55;;;3.00;99.90;;;;;;4993537;28;20157;-68
2021/03/03 03:52:55;;;;;;;33.47;16.88;;;3.00;99.90;;;;;;4975308;28;20492;-68
2021/03/03 03:55:31;;;;;;;40.25;17.90;;;3.00;99.90;;;;;;4993681;28;20038;-69
2021/03/03 03:57:57;;;;;;;39.72;18.52;;;2.90;99.90;;;;;;4992210;28;20038;-68
2021/03/03 04:00:23;;;;;;;33.00;17.23;;;2.90;99.90;;;;;;4992919;28;20061;-68
2021/03/03 04:02:49;;;;;;;36.08;19.20;;;2.90;99.90;;;;;;4992950;28;20034;-65
2021/03/03 04:05:16;;;;;;;33.78;17.05;;;2.90;99.90;;;;;;4976036;28;20158;-67
2021/03/03 04:07:42;;;;;;;33.63;17.40;;;2.90;99.90;;;;;;4992980;28;20030;-72
2021/03/03 04:10:10;;;;;;;37.80;18.05;;;2.90;99.90;;;;;;4992700;28;20030;-67
2021/03/03 04:12:36;;;;;;;34.08;17.98;;;2.90;99.90;;;;;;4993937;28;20041;-67
2021/03/03 04:15:03;;;;;;;30.50;16.17;;;2.90;99.90;;;;;;4992625;28;20038;-68
2021/03/03 04:17:28;;;;;;;30.15;16.50;;;2.90;99.90;;;;;;4993220;28;20038;-67
2021/03/03 04:19:54;;;;;;;29.80;15.90;;;2.80;99.90;;;;;;4991995;28;20033;-66
2021/03/03 04:22:20;;;;;;;32.45;17.63;;;2.70;99.90;;;;;;4992412;28;20383;-69
2021/03/03 04:24:45;;;;;;;31.25;16.77;;;2.70;99.90;;;;;;4974302;28;20031;-70
2021/03/03 04:27:11;;;;;;;31.17;16.75;;;2.60;99.90;;;;;;4975942;28;20336;-66
2021/03/03 04:29:36;;;;;;;32.90;17.38;;;2.50;99.90;;;;;;4993157;28;20023;-66
2021/03/03 04:32:02;;;;;;;27.55;15.75;;;2.50;99.90;;;;;;4992344;28;20225;-67
2021/03/03 04:34:28;;;;;;;29.88;16.15;;;2.50;99.90;;;;;;4992313;28;20070;-67
2021/03/03 04:36:54;;;;;;;32.22;16.35;;;2.40;99.90;;;;;;4991705;28;20031;-67
2021/03/03 04:39:19;;;;;;;40.30;18.58;;;2.30;99.90;;;;;;4992234;28;20121;-69
2021/03/03 04:41:45;;;;;;;31.25;16.92;;;2.30;99.90;;;;;;4991875;28;20026;-72
2021/03/03 04:44:11;;;;;;;35.78;16.92;;;2.30;99.90;;;;;;4975213;28;20472;-66
2021/03/03 04:46:36;;;;;;;32.05;17.08;;;2.30;99.90;;;;;;4992349;28;20041;-67
2021/03/03 04:49:02;;;;;;;32.72;18.20;;;2.30;99.90;;;;;;4991717;28;20165;-66
2021/03/03 04:51:28;;;;;;;34.35;17.65;;;2.20;99.90;;;;;;4998040;28;20395;-65
2021/03/03 04:53:53;;;;;;;39.42;18.35;;;2.20;99.90;;;;;;4991688;28;20089;-66
2021/03/03 04:56:19;;;;;;;35.55;18.80;;;2.20;99.90;;;;;;4992005;28;20034;-66
2021/03/03 04:58:45;;;;;;;37.42;17.10;;;2.30;99.90;;;;;;5006076;28;20022;-70
2021/03/03 05:01:10;;;;;;;42.42;19.23;;;2.40;99.90;;;;;;5011897;28;20034;-66
2021/03/03 05:03:36;;;;;;;36.00;16.65;;;2.40;99.90;;;;;;5002634;28;20463;-66
2021/03/03 05:06:02;;;;;;;34.95;17.65;;;2.60;99.90;;;;;;4991261;28;20054;-65
2021/03/03 05:08:27;;;;;;;32.65;16.83;;;2.60;99.90;;;;;;4991854;28;20025;-66
2021/03/03 05:10:53;;;;;;;32.22;16.88;;;2.70;99.90;;;;;;4991645;28;20455;-65
2021/03/03 05:13:18;;;;;;;29.85;15.80;;;2.80;99.90;;;;;;4991889;28;20455;-65
2021/03/03 05:15:44;;;;;;;36.00;16.77;;;2.70;99.90;;;;;;4991989;28;20037;-70
2021/03/03 05:18:10;;;;;;;38.53;17.73;;;2.70;99.90;;;;;;4991046;28;20033;-66
2021/03/03 05:20:37;;;;;;;31.48;17.25;;;2.60;99.90;;;;;;4991168;28;20042;-65
2021/03/03 05:23:03;;;;;;;33.10;18.13;;;2.60;99.90;;;;;;4990702;28;20034;-65
2021/03/03 05:25:29;;;;;;;40.53;18.83;;;2.60;99.90;;;;;;4991238;28;20034;-66
2021/03/03 05:27:56;;;;;;;30.15;17.02;;;2.60;99.90;;;;;;4991364;28;20084;-66
2021/03/03 05:30:23;;;;;;;36.53;17.35;;;2.60;99.90;;;;;;4991921;28;20049;-65
2021/03/03 05:32:49;;;;;;;32.75;17.35;;;;;;;;;;4990667;28;20080;-66
2021/03/03 05:35:14;;;;;;;31.08;16.58;;;2.60;99.90;;;;;;4990916;28;20066;-65
2021/03/03 05:37:40;;;;;;;36.58;18.00;;;2.50;99.90;;;;;;4991654;28;20486;-65
2021/03/03 05:40:06;;;;;;;31.63;16.27;;;2.50;99.90;;;;;;4990883;28;20034;-65
2021/03/03 05:42:35;;;;;;;33.75;16.73;;;2.40;99.90;;;;;;4991561;28;20046;-66
2021/03/03 05:45:02;;;;;;;33.90;18.25;;;2.40;99.90;;;;;;4973260;28;20027;-67
2021/03/03 05:47:32;;;;;;;33.13;17.92;;;2.30;99.90;;;;;;4991550;28;20022;-67
2021/03/03 05:50:00;;;;;;;32.75;17.70;;;2.30;99.90;;;;;;4990535;28;20026;-67
2021/03/03 05:52:28;;;;;;;43.25;19.73;;;2.20;99.90;;;;;;4989835;28;20453;-68
2021/03/03 05:54:55;;;;;;;34.50;18.50;;;2.20;99.90;;;;;;4989648;28;20375;-68
2021/03/03 05:57:22;;;;;;;38.38;19.77;;;2.10;99.90;;;;;;4991497;28;20045;-67
2021/03/03 05:59:48;;;;;;;32.53;16.98;;;2.10;99.90;;;;;;4990671;28;20033;-70
2021/03/03 06:02:14;;;;;;;36.22;18.00;;;2.20;99.90;;;;;;4990669;28;20035;-66
2021/03/03 06:04:41;;;;;;;38.45;16.45;;;2.20;99.90;;;;;;4991176;28;20084;-67
2021/03/03 06:07:07;;;;;;;33.40;18.48;;;2.20;99.90;;;;;;4990257;28;20222;-67
2021/03/03 06:09:33;;;;;;;33.90;17.45;;;2.30;99.90;;;;;;4991454;28;20467;-67
2021/03/03 06:11:59;;;;;;;32.60;17.63;;;2.30;99.90;;;;;;4990337;28;20472;-67
2021/03/03 06:14:25;;;;;;;33.42;17.08;;;2.20;99.90;;;;;;4991028;28;20077;-67
2021/03/03 06:16:54;;;;;;;30.85;17.25;;;2.30;99.90;;;;;;4973391;28;20030;-67
2021/03/03 06:19:20;;;;;;;36.17;17.48;;;2.30;99.90;;;;;;4974786;28;20073;-66
2021/03/03 06:21:46;;;;;;;34.38;16.90;;;2.30;99.90;;;;;;4996244;28;20101;-71
2021/03/03 06:24:12;;;;;;;33.40;17.80;;;2.30;99.90;;;;;;4991183;28;20423;-66
2021/03/03 06:26:59;;;;;;;37.28;19.38;;;2.40;99.90;;;;;;4991279;28;20070;-66
2021/03/03 06:29:25;;;;;;;35.85;18.27;;;2.40;99.90;;;;;;4989218;28;20084;-67
2021/03/03 06:31:51;;;;;;;36.50;18.10;;;2.40;99.90;;;;;;4986268;28;20022;-66
2021/03/03 06:34:22;;;;;;;36.28;17.90;;;2.40;99.90;;;;;;4990669;28;20054;-66
2021/03/03 06:37:03;;;;;;;31.58;17.17;;;2.50;99.90;;;;;;4990176;28;20464;-70
2021/03/03 06:39:36;;;;;;;37.35;17.90;;;2.50;99.90;;;;;;4990590;28;20038;-66
2021/03/03 06:42:02;;;;;;;32.67;16.98;;;2.50;99.90;;;;;;4989808;28;20471;-65
2021/03/03 06:44:50;;;;;;;32.17;17.58;;;2.60;99.90;;;;;;4990205;28;20027;-65
2021/03/03 06:47:16;;;;;;;34.60;18.65;;;2.60;99.90;;;;;;4991565;28;20077;-65
2021/03/03 06:49:43;;;;;;;31.52;17.77;;;2.60;99.90;;;;;;4994840;28;20108;-65
2021/03/03 06:52:09;;;;;;;32.00;17.52;;;2.70;99.90;;;;;;4994849;28;20110;-65
2021/03/03 06:54:34;;;;;;;31.50;17.33;;;2.70;99.90;;;;;;4993877;28;20317;-65
2021/03/03 06:57:04;;;;;;;34.45;18.77;;;2.80;99.90;;;;;;4993988;28;20038;-65
2021/03/03 06:59:35;;;;;;;40.35;19.85;;;2.90;99.90;;;;;;4993533;28;20037;-70
2021/03/03 07:02:14;;;;;;;31.90;16.50;;;2.90;99.90;;;;;;4991056;28;20479;-68
2021/03/03 07:04:45;;;;;;;29.00;16.80;;;3.00;99.90;;;;;;4993138;28;20023;-65
2021/03/03 07:07:14;;;;;;;;;;;3.10;99.90;;;;;;4993306;28;20517;-64
2021/03/03 07:09:58;;;;;;;34.33;18.23;;;3.20;99.90;;;;;;4993357;28;20780;-65
2021/03/03 07:12:26;;;;;;;35.97;18.33;;;3.20;99.90;;;;;;4994033;28;20042;-67
2021/03/03 07:15:05;;;;;;;35.28;19.38;;;3.30;99.90;;;;;;4993235;28;20105;-65
2021/03/03 07:17:37;;;;;;;38.17;18.65;;;3.40;99.90;;;;;;4977377;28;20026;-64
2021/03/03 07:20:10;;;;;;;41.53;20.38;;;3.60;99.90;;;;;;4992076;28;20386;-69
2021/03/03 07:22:40;;;;;;;39.13;20.45;;;3.80;99.90;;;;;;4984311;28;20038;-65
2021/03/03 07:25:07;;;;;;;40.65;20.25;;;3.90;99.90;;;;;;4974824;28;20037;-65
2021/03/03 07:27:34;;;;;;;33.53;18.92;;;4.00;99.90;;;;;;4991443;28;20121;-64
2021/03/03 07:30:10;;;;;;;35.22;19.77;;;4.00;99.90;;;;;;4990457;28;20440;-63
2021/03/03 07:32:37;;;;;;;28.90;18.00;;;4.10;99.90;;;;;;4975439;28;20412;-63
2021/03/03 07:35:04;;;;;;;30.33;18.02;;;4.20;99.90;;;;;;4992846;28;20042;-65
2021/03/03 07:37:35;;;;;;;31.88;17.52;;;4.20;99.90;;;;;;4974883;28;20109;-63
2021/03/03 07:40:12;;;;;;;34.38;18.60;;;4.30;99.90;;;;;;4992374;28;20041;-63
2021/03/03 07:42:39;;;;;;;33.53;19.42;;;4.40;99.90;;;;;;4993502;28;20179;-64
2021/03/03 07:45:09;;;;;;;35.97;18.17;;;4.50;99.90;;;;;;4992760;28;20432;-64
2021/03/03 07:47:36;;;;;;;;;;;4.60;99.90;;;;;;4994547;28;20030;-63
2021/03/03 07:50:20;;;;;;;30.85;17.48;;;4.70;99.30;;;;;;4993194;28;19916;-66
2021/03/03 07:52:49;;;;;;;32.92;18.02;;;4.80;98.70;;;;;;5013412;28;20029;-64
2021/03/03 07:55:15;;;;;;;29.15;17.13;;;4.90;98.30;;;;;;5013108;28;20033;-63
2021/03/03 07:57:48;;;;;;;32.05;17.83;;;5.00;97.80;;;;;;5008340;28;20037;-64
2021/03/03 08:00:37;;;;;;;33.22;18.33;;;5.10;97.30;;;;;;4989363;28;20045;-63
2021/03/03 08:03:03;;;;;;;34.35;18.88;;;5.20;96.40;;;;;;4992393;28;20035;-63
2021/03/03 08:05:33;;;;;;;35.17;19.02;;;5.30;95.60;;;;;;4993320;28;20038;-63
2021/03/03 08:08:14;;;;;;;34.00;18.80;;;5.40;94.60;;;;;;4991399;28;20023;-64
2021/03/03 08:10:44;;;;;;;39.70;19.65;;;5.60;93.80;;;;;;4986678;28;20479;-64
2021/03/03 08:13:15;;;;;;;40.58;19.48;;;5.60;93.40;;;;;;4991882;28;20030;-63
2021/03/03 08:15:45;;;;;;;45.65;18.90;;;5.80;91.90;;;;;;4994670;28;20045;-64
2021/03/03 08:18:14;;;;;;;35.60;19.83;;;5.90;90.80;;;;;;5011982;28;20160;-63
2021/03/03 08:20:41;;;;;;;38.25;18.67;;;5.90;90.00;;;;;;5004383;28;20018;-65
2021/03/03 08:23:07;;;;;;;41.53;18.63;;;6.00;89.60;;;;;;4990096;28;20029;-64
2021/03/03 08:25:50;;;;;;;40.05;19.98;;;6.00;89.10;;;;;;4975263;28;20034;-64
2021/03/03 08:28:28;;;;;;;31.30;17.73;;;6.10;88.40;;;;;;4992786;28;20498;-64
2021/03/03 08:31:10;;;;;;;32.45;18.10;;;6.20;87.90;;;;;;4987914;28;20080;-64
2021/03/03 08:33:50;;;;;;;33.90;17.48;;;6.20;88.10;;;;;;4989574;28;20515;-63
2021/03/03 08:36:21;;;;;;;41.08;18.13;;;6.30;87.80;;;;;;4972674;28;20094;-64
2021/03/03 08:38:56;;;;;;;33.50;18.42;;;6.40;87.00;;;;;;4972366;28;20043;-64
2021/03/03 08:41:28;;;;;;;39.50;20.35;;;6.50;87.00;;;;;;4972954;28;20019;-66
2021/03/03 08:44:13;;;;;;;38.08;20.27;;;6.60;86.80;;;;;;4972015;28;20057;-67
2021/03/03 08:46:42;;;;;;;34.33;17.95;;;6.70;85.70;;;;;;4978693;28;20045;-64
2021/03/03 08:49:07;;;;;;;36.25;19.40;;;6.80;85.60;;;;;;4972071;28;20384;-66
2021/03/03 08:51:44;;;;;;;39.03;18.83;;;6.90;84.20;;;;;;4974224;28;20124;-66
2021/03/03 08:54:11;;;;;;;39.25;19.52;;;7.00;83.50;;;;;;4971902;28;20033;-70
2021/03/03 08:56:46;;;;;;;47.38;20.50;;;7.10;83.10;;;;;;4961869;28;20037;-67
2021/03/03 08:59:36;;;;;;;38.88;19.75;;;7.20;81.90;;;;;;4982968;28;20089;-66
2021/03/03 09:02:12;;;;;;;42.15;19.98;;;7.20;81.40;;;;;;4969771;28;20085;-69
2021/03/03 09:04:51;;;;;;;37.28;19.55;;;7.30;81.70;;;;;;4978838;28;20049;-69
2021/03/03 09:07:29;;;;;;;40.70;18.20;;;7.30;81.20;;;;;;4972126;28;20035;-68
2021/03/03 09:10:15;;;;;;;36.35;18.63;;;7.40;81.00;;;;;;4969951;28;20314;-68
2021/03/03 09:12:44;;;;;;;37.75;18.92;;;7.50;80.20;;;;;;4972285;28;20054;-71
2021/03/03 09:15:13;;;;;;;33.25;17.98;;;7.60;80.20;;;;;;4970703;28;20045;-72
2021/03/03 09:17:39;;;;;;;38.75;19.25;;;7.70;78.60;;;;;;4970069;28;20033;-67
2021/03/03 09:20:07;;;;;;;38.50;19.25;;;7.70;78.60;;;;;;4971715;28;20376;-68
2021/03/03 09:22:36;;;;;;;38.90;19.65;;;7.80;78.30;;;;;;4972957;28;20034;-65
2021/03/03 09:25:16;;;;;;;33.55;19.30;;;7.90;79.00;;;;;;4969707;28;20039;-65
2021/03/03 09:27:58;;;;;;;31.83;18.13;;;8.00;77.60;;;;;;4968057;28;20285;-64
2021/03/03 09:30:26;;;;;;;33.08;18.13;;;8.00;77.50;;;;;;4977549;28;20447;-65
2021/03/03 09:32:53;;;;;;;31.92;17.73;;;8.10;77.20;;;;;;4975550;28;20051;-70
2021/03/03 09:35:29;;;;;;;35.97;18.90;;;8.20;77.40;;;;;;4970834;28;20062;-65
2021/03/03 09:37:56;;;;;;;33.25;19.08;;;8.30;76.80;;;;;;4982542;28;20092;-72
2021/03/03 09:40:31;;;;;;;38.25;18.33;;;8.40;75.80;;;;;;4979525;28;20034;-65
2021/03/03 09:42:57;;;;;;;39.95;18.80;;;8.50;75.50;;;;;;4983020;28;20030;-71
2021/03/03 09:45:24;;;;;;;41.00;18.90;;;8.50;75.20;;;;;;4985501;28;20034;-65
2021/03/03 09:47:50;;;;;;;35.15;18.17;;;8.60;74.60;;;;;;4981000;28;20053;-65
2021/03/03 09:50:21;;;;;;;34.55;18.85;;;8.70;74.60;;;;;;4980060;28;20062;-65
2021/03/03 09:52:50;;;;;;;36.05;18.88;;;8.70;73.80;;;;;;4981520;28;20079;-68
2021/03/03 09:55:17;;;;;;;40.42;19.98;;;8.80;73.50;;;;;;4962700;28;20041;-67
2021/03/03 09:57:58;;;;;;;36.30;18.65;;;8.80;73.70;;;;;;4964978;28;20372;-65
2021/03/03 10:00:29;;;;;;;30.33;18.30;;;8.90;73.50;;;;;;4982802;28;20023;-65
2021/03/03 10:03:14;;;;;;;37.10;18.13;;;8.90;73.00;;;;;;4965045;28;20035;-71
2021/03/03 10:05:41;;;;;;;33.70;18.02;;;9.00;72.90;;;;;;4977776;28;20395;-65
2021/03/03 10:08:08;;;;;;;27.38;17.17;;;9.10;72.40;;;;;;4979633;28;20031;-66
2021/03/03 10:10:41;;;;;;;36.63;17.13;;;9.20;72.10;;;;;;4978291;28;20031;-66
2021/03/03 10:13:25;;;;;;;34.72;17.73;;;9.20;71.80;;;;;;4979002;28;20077;-66
2021/03/03 10:15:51;;;;;;;31.92;18.45;;;9.20;71.50;;;;;;4976488;28;20130;-68
2021/03/03 10:18:17;;;;;;;32.92;18.70;;;9.30;71.60;;;;;;4978506;28;20139;-65
2021/03/03 10:20:56;;;;;;;35.13;18.23;;;9.40;70.90;;;;;;4983199;28;20062;-65
2021/03/03 10:23:28;;;;;;;34.67;19.80;;;9.50;70.80;;;;;;4986043;28;20034;-65
2021/03/03 10:26:07;;;;;;;39.83;19.25;;;9.60;70.20;;;;;;4986251;28;20532;-71
2021/03/03 10:28:34;;;;;;;32.92;19.00;;;9.70;70.10;;;;;;4988003;28;20029;-66
2021/03/03 10:31:02;;;;;;;33.58;21.60;;;9.80;69.90;;;;;;4988519;28;20038;-66
2021/03/03 10:33:34;;;;;;;38.88;21.15;;;9.90;69.60;;;;;;4984928;28;20047;-65
2021/03/03 10:36:16;;;;;;;35.83;19.77;;;10.00;69.20;;;;;;4986745;28;20034;-66
2021/03/03 10:38:55;;;;;;;34.25;19.15;;;10.10;68.50;;;;;;4987327;28;20038;-65
2021/03/03 10:41:27;;;;;;;31.58;18.35;;;10.30;67.90;;;;;;4986058;28;20078;-66
2021/03/03 10:43:53;;;;;;;35.97;17.55;;;10.30;68.10;;;;;;4985050;28;20056;-65
2021/03/03 10:46:24;;;;;;;33.70;19.02;;;10.40;67.80;;;;;;4981882;28;20403;-65
2021/03/03 10:48:54;;;;;;;27.25;18.08;;;10.50;67.40;;;;;;4990607;28;20034;-69
2021/03/03 10:51:33;;;;;;;31.63;17.85;;;10.60;67.40;;;;;;4970033;28;20034;-66
2021/03/03 10:53:58;;;;;;;31.63;18.70;;;10.60;66.70;;;;;;4979161;28;20030;-67
2021/03/03 10:56:28;;;;;;;32.08;17.73;;;10.60;67.00;;;;;;4988230;28;20031;-67
2021/03/03 10:58:56;;;;;;;38.10;18.90;;;10.70;67.00;;;;;;4988876;28;20132;-69
2021/03/03 11:01:23;;;;;;;35.28;18.95;;;10.80;66.40;;;;;;4986466;28;20270;-67
2021/03/03 11:03:58;;;;;;;34.90;18.80;;;10.90;65.60;;;;;;4987415;28;20082;-65
2021/03/03 11:06:33;;;;;;;38.20;20.25;;;11.00;65.60;;;;;;4985979;28;20034;-65
2021/03/03 11:09:00;;;;;;;31.98;18.27;;;11.10;65.20;;;;;;4984597;28;20037;-68
2021/03/03 11:11:26;;;;;;;30.83;19.08;;;11.10;65.30;;;;;;4988253;28;20168;-66
2021/03/03 11:13:53;;;;;;;38.88;19.20;;;11.20;64.90;;;;;;4963699;28;20828;-65
2021/03/03 11:16:19;;;;;;;32.45;19.25;;;11.30;64.80;;;;;;4986367;28;20096;-66
2021/03/03 11:18:45;;;;;;;39.28;19.13;;;11.40;64.70;;;;;;4984510;28;20026;-65
2021/03/03 11:21:10;;;;;;;31.70;18.95;;;11.40;64.40;;;;;;4987685;28;20121;-65
2021/03/03 11:23:36;;;;;;;38.25;19.08;;;11.50;64.10;;;;;;5000541;28;20026;-66
2021/03/03 11:26:02;;;;;;;37.30;20.35;;;11.60;64.90;;;;;;4988023;28;20502;-65
2021/03/03 11:28:28;;;;;;;33.10;19.10;;;11.60;63.90;;;;;;4989120;28;20034;-67
2021/03/03 11:30:54;;;;;;;34.33;19.10;;;11.70;63.70;;;;;;4989536;28;20415;-67
2021/03/03 11:33:20;;;;;;;32.45;18.70;;;11.90;63.00;;;;;;4991704;28;20042;-64
2021/03/03 11:35:46;;;;;;;34.17;19.77;;;12.00;63.00;;;;;;4995865;28;20112;-65
2021/03/03 11:38:12;;;;;;;33.28;18.25;;;12.10;62.20;;;;;;4975532;28;20038;-65
2021/03/03 11:40:38;;;;;;;34.95;19.65;;;12.20;62.00;;;;;;4992696;28;20038;-65
2021/03/03 11:43:04;;;;;;;34.83;19.40;;;12.20;61.50;;;;;;4992611;28;20093;-65
2021/03/03 11:45:30;;;;;;;35.72;19.65;;;12.30;61.70;;;;;;5001565;28;20129;-65
2021/03/03 11:47:56;;;;;;;34.72;18.27;;;12.30;60.90;;;;;;5000776;28;20030;-69
2021/03/03 11:50:22;;;;;;;29.73;19.13;;;12.40;60.90;;;;;;4982809;28;20080;-66
2021/03/03 11:52:48;;;;;;;33.22;19.42;;;12.40;60.90;;;;;;4981997;28;20498;-66
2021/03/03 11:55:14;;;;;;;35.10;19.23;;;12.40;61.60;;;;;;5014315;28;20034;-67
2021/03/03 11:57:40;;;;;;;30.67;19.75;;;12.50;60.60;;;;;;5001007;28;20095;-65
2021/03/03 12:00:08;;;;;;;35.65;19.23;;;12.50;60.60;;;;;;4993829;28;20030;-66
2021/03/03 12:02:34;;;;;;;32.33;18.95;;;12.60;60.40;;;;;;4997334;28;20034;-67
2021/03/03 12:05:00;;;;;;;34.55;18.85;;;12.70;59.60;;;;;;5001037;28;20030;-66
2021/03/03 12:07:25;;;;;;;43.20;19.30;;;12.70;59.80;;;;;;5002601;28;20117;-66
2021/03/03 12:09:51;;;;;;;28.75;18.10;;;12.70;60.40;;;;;;5003045;28;20056;-66
2021/03/03 12:12:17;;;;;;;34.08;19.55;;;12.80;59.20;;;;;;5002303;28;20428;-65
2021/03/03 12:14:43;;;;;;;30.48;18.83;;;12.80;60.00;;;;;;4992452;28;20038;-66
2021/03/03 12:17:08;;;;;;;29.70;17.45;;;12.80;60.00;;;;;;4991314;28;20085;-68
2021/03/03 12:19:34;;;;;;;32.03;18.55;;;12.90;58.60;;;;;;4992211;28;20058;-67
2021/03/03 12:22:00;;;;;;;32.17;19.33;;;13.00;58.70;;;;;;4994303;28;20471;-65
2021/03/03 12:24:26;;;;;;;31.05;19.42;;;13.00;59.30;;;;;;4992598;28;20097;-66
2021/03/03 12:26:52;;;;;;;31.50;18.73;;;12.90;58.80;;;;;;4991711;28;20054;-65
2021/03/03 12:29:19;;;;;;;31.27;17.58;;;12.90;58.90;;;;;;4985269;28;20089;-64
2021/03/03 12:31:44;;;;;;;30.83;17.88;;;12.90;59.20;;;;;;4991580;28;20026;-64
2021/03/03 12:34:10;;;;;;;31.25;18.08;;;12.90;59.50;;;;;;4978550;28;20061;-64
2021/03/03 12:36:36;;;;;;;32.45;19.13;;;13.00;59.50;;;;;;4973482;28;20443;-64
2021/03/03 12:39:02;;;;;;;37.88;19.92;;;13.00;59.20;;;;;;4972830;28;20030;-64
2021/03/03 12:41:27;;;;;;;30.45;19.77;;;13.10;59.00;;;;;;4964794;28;20370;-64
2021/03/03 12:43:53;;;;;;;31.92;19.85;;;13.20;59.40;;;;;;4976443;28;20034;-64